HomeShort term forecast

Short term forecast

Graphical weather forecast for the next 48 hours for Montreal:
Short term forecast
This weather forecast is automatically refreshed every 3 hours.

Hourly Experimental Forecast for the next 48 hours

Overall summary: Rain starting tomorrow morning, continuing until tomorrow evening.

 Date & Hour   Temp   Feel   Baro   Hum   Speed & Bearing   Precipitation   Visibility   Cloud cover   Conditions 
 26/04/2018 - 02:00  11.2°C  11.2°C  1002.5 hPa  94%  6.6 km/h   0.30 mm/h  7.3km  87%  Mostly Cloudy 
 26/04/2018 - 03:00  11.0°C  11.0°C  1001.7 hPa  92%  6.0 km/h   0.17 mm/h  10.9km  92%  Mostly Cloudy 
 26/04/2018 - 04:00  10.7°C  10.7°C  1001.4 hPa  92%  5.7 km/h   0.31 mm/h  6.7km  98%  Overcast 
 26/04/2018 - 05:00  10.1°C  10.1°C  1001.0 hPa  94%  5.5 km/h   0.51 mm/h  7.7km  98%  Overcast 
 26/04/2018 - 06:00  9.7°C  9.3°C  1000.8 hPa  95%  5.6 km/h   0.43 mm/h  7.8km  100%  Overcast 
 26/04/2018 - 07:00  9.5°C  8.9°C  1000.6 hPa  95%  6.3 km/h   0.97 mm/h  8.0km  100%  Light Rain 
 26/04/2018 - 08:00  9.6°C  8.7°C  1000.6 hPa  94%  7.3 km/h   1.42 mm/h  8.4km  100%  Rain 
 26/04/2018 - 09:00  9.5°C  8.3°C  1000.7 hPa  94%  8.6 km/h   1.53 mm/h  10.1km  100%  Rain 
 26/04/2018 - 10:00  9.5°C  7.8°C  1001.0 hPa  95%  11.3 km/h   1.69 mm/h  12.8km  100%  Rain 
 26/04/2018 - 11:00  9.2°C  7.1°C  1001.3 hPa  95%  14.0 km/h   1.76 mm/h  15.0km  100%  Rain 
 26/04/2018 - 12:00  8.9°C  6.5°C  1001.5 hPa  96%  15.6 km/h   1.50 mm/h  15.2km  100%  Rain 
 26/04/2018 - 13:00  8.7°C  6.1°C  1001.5 hPa  97%  16.5 km/h   1.07 mm/h  14.0km  100%  Light Rain 
 26/04/2018 - 14:00  8.5°C  5.8°C  1001.7 hPa  98%  17.4 km/h   1.27 mm/h  12.5km  100%  Light Rain 
 26/04/2018 - 15:00  8.8°C  5.9°C  1001.9 hPa  98%  20.1 km/h   0.95 mm/h  16.1km  100%  Light Rain 
 26/04/2018 - 16:00  9.1°C  6.3°C  1002.4 hPa  98%  20.3 km/h   0.85 mm/h  16.1km  100%  Light Rain 
 26/04/2018 - 17:00  9.7°C  7.0°C  1003.0 hPa  95%  20.0 km/h   0.67 mm/h  16.1km  100%  Light Rain 
 26/04/2018 - 18:00  10.4°C  10.4°C  1003.8 hPa  90%  18.5 km/h   0.36 mm/h  16.1km  91%  Mostly Cloudy 
 26/04/2018 - 19:00  11.1°C  11.1°C  1004.6 hPa  85%  16.7 km/h   0.10 mm/h  16.1km  79%  Mostly Cloudy 
 26/04/2018 - 20:00  11.2°C  11.2°C  1005.5 hPa  83%  15.8 km/h   0.02 mm/h  16.1km  68%  Mostly Cloudy 
 26/04/2018 - 21:00  10.7°C  10.7°C  1006.6 hPa  85%  15.5 km/h   0.01 mm/h  16.1km  51%  Partly Cloudy 
 26/04/2018 - 22:00  9.9°C  7.7°C  1007.6 hPa  87%  15.3 km/h   --  16.1km  30%  Partly Cloudy 
 26/04/2018 - 23:00  9.1°C  6.9°C  1008.5 hPa  88%  14.9 km/h   --  16.1km  15%  Clear 
 27/04/2018 - 00:00  8.6°C  6.5°C  1008.9 hPa  88%  13.3 km/h   --  16.1km  12%  Clear 
 27/04/2018 - 01:00  8.3°C  6.4°C  1009.0 hPa  86%  11.3 km/h   --  16.1km  16%  Clear 
 27/04/2018 - 02:00  7.9°C  6.2°C  1009.1 hPa  84%  9.8 km/h   --  16.1km  21%  Clear 
 27/04/2018 - 03:00  7.3°C  5.6°C  1009.4 hPa  84%  9.0 km/h   --  16.1km  28%  Partly Cloudy 
 27/04/2018 - 04:00  6.5°C  4.7°C  1009.6 hPa  85%  8.9 km/h   --  16.1km  38%  Partly Cloudy 
 27/04/2018 - 05:00  5.8°C  3.9°C  1009.9 hPa  86%  8.7 km/h   0.01 mm/h  16.1km  46%  Partly Cloudy 
 27/04/2018 - 06:00  5.6°C  3.8°C  1010.3 hPa  87%  8.3 km/h   0.01 mm/h  16.1km  59%  Partly Cloudy 
 27/04/2018 - 07:00  5.9°C  4.2°C  1010.7 hPa  87%  7.9 km/h   0.01 mm/h  16.1km  75%  Mostly Cloudy 
 27/04/2018 - 08:00  6.7°C  5.2°C  1011.0 hPa  84%  7.7 km/h   0.01 mm/h  16.1km  89%  Mostly Cloudy 
 27/04/2018 - 09:00  8.2°C  7.0°C  1011.0 hPa  78%  7.6 km/h   0.01 mm/h  16.1km  92%  Mostly Cloudy 
 27/04/2018 - 10:00  9.9°C  9.0°C  1011.0 hPa  73%  7.7 km/h   0.01 mm/h  16.1km  96%  Overcast 
 27/04/2018 - 11:00  11.3°C  11.3°C  1010.7 hPa  69%  7.8 km/h   --  16.1km  99%  Overcast 
 27/04/2018 - 12:00  12.1°C  12.1°C  1010.2 hPa  66%  7.6 km/h   --  16.1km  99%  Overcast 
 27/04/2018 - 13:00  12.7°C  12.7°C  1009.6 hPa  65%  7.5 km/h   --  16.1km  99%  Overcast 
 27/04/2018 - 14:00  13.0°C  13.0°C  1008.9 hPa  65%  7.7 km/h   --  16.1km  100%  Overcast 
 27/04/2018 - 15:00  13.3°C  13.3°C  1008.2 hPa  66%  8.8 km/h   --  16.1km  100%  Overcast 
 27/04/2018 - 16:00  13.5°C  13.5°C  1007.5 hPa  69%  10.2 km/h   0.01 mm/h  16.1km  100%  Overcast 
 27/04/2018 - 17:00  13.5°C  13.5°C  1007.0 hPa  71%  11.3 km/h   0.02 mm/h  16.1km  100%  Overcast 
 27/04/2018 - 18:00  13.2°C  13.2°C  1006.8 hPa  74%  12.1 km/h   0.09 mm/h  16.1km  100%  Overcast 
 27/04/2018 - 19:00  12.5°C  12.5°C  1006.7 hPa  79%  12.7 km/h   0.29 mm/h  14.6km  100%  Overcast 
 27/04/2018 - 20:00  11.7°C  11.7°C  1006.6 hPa  84%  13.0 km/h   0.46 mm/h  11.8km  100%  Overcast 
 27/04/2018 - 21:00  10.9°C  10.9°C  1006.4 hPa  88%  12.5 km/h   0.41 mm/h  14.7km  100%  Overcast 
 27/04/2018 - 22:00  10.2°C  10.2°C  1006.2 hPa  91%  11.4 km/h   0.29 mm/h  16.1km  100%  Overcast 
 27/04/2018 - 23:00  9.7°C  8.3°C  1005.9 hPa  94%  10.2 km/h   0.25 mm/h  16.1km  100%  Overcast 
 28/04/2018 - 00:00  9.5°C  8.4°C  1005.6 hPa  94%  8.6 km/h   0.26 mm/h  16.1km  93%  Mostly Cloudy 
 28/04/2018 - 01:00  9.7°C  8.9°C  1005.2 hPa  92%  6.9 km/h   0.28 mm/h  11.7km  85%  Mostly Cloudy 
Test

 

Past weather and reports

Past weatherFind in this section the past weather conditions, weather archive, graphics, reports and statistics.

Current conditions

Current weather condition for MontrealAll you need to know about the current weather conditions for Montreal. Weather data is updated every 10 minutes.

Weather forecast

Current Montreal weatherSince 2004, celinium.com website has provided accurate weather forecast for Montreal's island.